sensor_id;sensor_type;location;lat;lon;timestamp;P1;durP1;ratioP1;P2;durP2;ratioP2
37973;SDS011;23796;51.458;7.000;2023-09-08T00:01:56;5.13;;;3.33;;
37973;SDS011;23796;51.458;7.000;2023-09-08T00:04:22;7.00;;;3.17;;
37973;SDS011;23796;51.458;7.000;2023-09-08T00:06:48;3.88;;;2.60;;
37973;SDS011;23796;51.458;7.000;2023-09-08T00:09:13;4.63;;;3.20;;
37973;SDS011;23796;51.458;7.000;2023-09-08T00:11:44;4.75;;;3.10;;
37973;SDS011;23796;51.458;7.000;2023-09-08T00:14:09;5.50;;;2.95;;
37973;SDS011;23796;51.458;7.000;2023-09-08T00:16:37;5.07;;;3.13;;
37973;SDS011;23796;51.458;7.000;2023-09-08T00:19:07;6.13;;;3.08;;
37973;SDS011;23796;51.458;7.000;2023-09-08T00:21:36;5.15;;;3.15;;
37973;SDS011;23796;51.458;7.000;2023-09-08T00:24:02;4.85;;;3.15;;
37973;SDS011;23796;51.458;7.000;2023-09-08T00:26:29;5.95;;;3.10;;
37973;SDS011;23796;51.458;7.000;2023-09-08T00:28:57;4.30;;;2.97;;
37973;SDS011;23796;51.458;7.000;2023-09-08T00:31:22;4.95;;;3.10;;
37973;SDS011;23796;51.458;7.000;2023-09-08T00:33:50;5.45;;;2.92;;
37973;SDS011;23796;51.458;7.000;2023-09-08T00:36:16;5.30;;;2.65;;
37973;SDS011;23796;51.458;7.000;2023-09-08T00:38:44;4.95;;;3.35;;
37973;SDS011;23796;51.458;7.000;2023-09-08T00:41:10;4.53;;;3.30;;
37973;SDS011;23796;51.458;7.000;2023-09-08T00:43:35;4.60;;;2.97;;
37973;SDS011;23796;51.458;7.000;2023-09-08T00:46:01;5.10;;;3.08;;
37973;SDS011;23796;51.458;7.000;2023-09-08T00:48:27;4.43;;;3.10;;
37973;SDS011;23796;51.458;7.000;2023-09-08T00:50:54;6.18;;;3.15;;
37973;SDS011;23796;51.458;7.000;2023-09-08T00:53:22;5.70;;;3.55;;
37973;SDS011;23796;51.458;7.000;2023-09-08T00:55:48;5.32;;;3.50;;
37973;SDS011;23796;51.458;7.000;2023-09-08T00:58:15;5.32;;;3.30;;
37973;SDS011;23796;51.458;7.000;2023-09-08T01:00:41;5.15;;;3.15;;
37973;SDS011;23796;51.458;7.000;2023-09-08T01:03:06;7.45;;;3.63;;
37973;SDS011;23796;51.458;7.000;2023-09-08T01:05:32;6.28;;;3.22;;
37973;SDS011;23796;51.458;7.000;2023-09-08T01:07:58;4.40;;;3.22;;
37973;SDS011;23796;51.458;7.000;2023-09-08T01:10:24;6.07;;;3.22;;
37973;SDS011;23796;51.458;7.000;2023-09-08T01:12:50;5.28;;;3.25;;
37973;SDS011;23796;51.458;7.000;2023-09-08T01:15:16;4.80;;;3.35;;
37973;SDS011;23796;51.458;7.000;2023-09-08T01:17:44;6.15;;;3.20;;
37973;SDS011;23796;51.458;7.000;2023-09-08T01:20:17;4.30;;;3.10;;
37973;SDS011;23796;51.458;7.000;2023-09-08T01:25:55;4.85;;;3.05;;
37973;SDS011;23796;51.458;7.000;2023-09-08T01:28:34;7.05;;;3.53;;
37973;SDS011;23796;51.458;7.000;2023-09-08T01:31:01;7.07;;;3.35;;
37973;SDS011;23796;51.458;7.000;2023-09-08T01:33:27;5.85;;;3.60;;
37973;SDS011;23796;51.458;7.000;2023-09-08T01:35:53;7.40;;;4.03;;
37973;SDS011;23796;51.458;7.000;2023-09-08T01:38:20;6.38;;;4.28;;
37973;SDS011;23796;51.458;7.000;2023-09-08T01:40:46;6.55;;;4.38;;
37973;SDS011;23796;51.458;7.000;2023-09-08T01:43:12;5.90;;;4.25;;
37973;SDS011;23796;51.458;7.000;2023-09-08T01:45:37;6.47;;;4.32;;
37973;SDS011;23796;51.458;7.000;2023-09-08T01:48:03;6.70;;;4.40;;
37973;SDS011;23796;51.458;7.000;2023-09-08T01:55:40;6.30;;;4.03;;
37973;SDS011;23796;51.458;7.000;2023-09-08T01:58:10;4.82;;;3.90;;
37973;SDS011;23796;51.458;7.000;2023-09-08T02:00:36;5.93;;;4.22;;
37973;SDS011;23796;51.458;7.000;2023-09-08T02:03:01;6.68;;;4.35;;
37973;SDS011;23796;51.458;7.000;2023-09-08T02:05:29;6.18;;;4.18;;
37973;SDS011;23796;51.458;7.000;2023-09-08T02:07:55;7.85;;;4.55;;
37973;SDS011;23796;51.458;7.000;2023-09-08T02:10:21;4.95;;;3.35;;
37973;SDS011;23796;51.458;7.000;2023-09-08T02:12:52;4.97;;;3.47;;
37973;SDS011;23796;51.458;7.000;2023-09-08T02:15:17;4.47;;;3.30;;
37973;SDS011;23796;51.458;7.000;2023-09-08T02:17:43;5.55;;;4.35;;
37973;SDS011;23796;51.458;7.000;2023-09-08T02:20:09;6.63;;;4.05;;
37973;SDS011;23796;51.458;7.000;2023-09-08T02:22:35;6.55;;;3.72;;
37973;SDS011;23796;51.458;7.000;2023-09-08T02:25:01;6.78;;;4.40;;
37973;SDS011;23796;51.458;7.000;2023-09-08T02:27:26;11.25;;;5.35;;
37973;SDS011;23796;51.458;7.000;2023-09-08T02:29:52;7.13;;;4.70;;
37973;SDS011;23796;51.458;7.000;2023-09-08T02:32:20;7.68;;;4.47;;
37973;SDS011;23796;51.458;7.000;2023-09-08T02:34:46;6.13;;;4.70;;
37973;SDS011;23796;51.458;7.000;2023-09-08T02:37:13;7.97;;;5.03;;
37973;SDS011;23796;51.458;7.000;2023-09-08T02:39:39;6.97;;;4.15;;
37973;SDS011;23796;51.458;7.000;2023-09-08T02:42:04;7.88;;;4.60;;
37973;SDS011;23796;51.458;7.000;2023-09-08T02:44:31;7.78;;;5.00;;
37973;SDS011;23796;51.458;7.000;2023-09-08T02:46:59;9.15;;;4.80;;
37973;SDS011;23796;51.458;7.000;2023-09-08T02:49:25;8.10;;;4.45;;
37973;SDS011;23796;51.458;7.000;2023-09-08T02:51:50;6.20;;;4.68;;
37973;SDS011;23796;51.458;7.000;2023-09-08T02:54:16;7.80;;;4.57;;
37973;SDS011;23796;51.458;7.000;2023-09-08T02:56:42;5.95;;;4.50;;
37973;SDS011;23796;51.458;7.000;2023-09-08T02:59:10;5.50;;;4.10;;
37973;SDS011;23796;51.458;7.000;2023-09-08T03:01:37;6.43;;;4.43;;
37973;SDS011;23796;51.458;7.000;2023-09-08T03:04:03;4.90;;;3.67;;
37973;SDS011;23796;51.458;7.000;2023-09-08T03:06:29;4.90;;;3.90;;
37973;SDS011;23796;51.458;7.000;2023-09-08T03:08:54;6.75;;;4.05;;
37973;SDS011;23796;51.458;7.000;2023-09-08T03:11:20;5.40;;;3.72;;
37973;SDS011;23796;51.458;7.000;2023-09-08T03:13:45;6.50;;;3.97;;
37973;SDS011;23796;51.458;7.000;2023-09-08T03:16:11;6.20;;;3.75;;
37973;SDS011;23796;51.458;7.000;2023-09-08T03:18:36;6.50;;;3.78;;
37973;SDS011;23796;51.458;7.000;2023-09-08T03:21:03;5.20;;;3.60;;
37973;SDS011;23796;51.458;7.000;2023-09-08T03:23:41;9.40;;;3.95;;
37973;SDS011;23796;51.458;7.000;2023-09-08T03:26:10;6.43;;;4.05;;
37973;SDS011;23796;51.458;7.000;2023-09-08T03:28:36;4.63;;;3.40;;
37973;SDS011;23796;51.458;7.000;2023-09-08T03:31:05;6.55;;;4.47;;
37973;SDS011;23796;51.458;7.000;2023-09-08T03:33:31;7.60;;;3.78;;
37973;SDS011;23796;51.458;7.000;2023-09-08T03:35:57;8.88;;;4.15;;
37973;SDS011;23796;51.458;7.000;2023-09-08T03:38:23;5.93;;;3.97;;
37973;SDS011;23796;51.458;7.000;2023-09-08T03:40:48;8.85;;;5.40;;
37973;SDS011;23796;51.458;7.000;2023-09-08T03:43:14;6.03;;;4.25;;
37973;SDS011;23796;51.458;7.000;2023-09-08T03:45:40;7.63;;;4.93;;
37973;SDS011;23796;51.458;7.000;2023-09-08T03:48:06;6.32;;;3.92;;
37973;SDS011;23796;51.458;7.000;2023-09-08T03:50:32;4.95;;;3.67;;
37973;SDS011;23796;51.458;7.000;2023-09-08T03:52:58;6.93;;;3.95;;
37973;SDS011;23796;51.458;7.000;2023-09-08T03:55:23;8.32;;;4.75;;
37973;SDS011;23796;51.458;7.000;2023-09-08T03:57:51;6.57;;;3.40;;
37973;SDS011;23796;51.458;7.000;2023-09-08T04:00:20;6.50;;;3.78;;
37973;SDS011;23796;51.458;7.000;2023-09-08T04:02:49;4.65;;;2.97;;
37973;SDS011;23796;51.458;7.000;2023-09-08T04:05:16;6.97;;;4.38;;
37973;SDS011;23796;51.458;7.000;2023-09-08T04:07:42;5.18;;;2.92;;
37973;SDS011;23796;51.458;7.000;2023-09-08T04:10:08;6.03;;;4.00;;
37973;SDS011;23796;51.458;7.000;2023-09-08T04:12:36;8.30;;;2.92;;
37973;SDS011;23796;51.458;7.000;2023-09-08T04:15:01;5.78;;;3.13;;
37973;SDS011;23796;51.458;7.000;2023-09-08T04:17:27;4.63;;;3.10;;
37973;SDS011;23796;51.458;7.000;2023-09-08T04:19:54;7.70;;;4.65;;
37973;SDS011;23796;51.458;7.000;2023-09-08T04:22:21;7.28;;;4.38;;
37973;SDS011;23796;51.458;7.000;2023-09-08T04:24:49;8.77;;;4.72;;
37973;SDS011;23796;51.458;7.000;2023-09-08T04:27:15;7.22;;;4.90;;
37973;SDS011;23796;51.458;7.000;2023-09-08T04:29:45;7.63;;;4.95;;
37973;SDS011;23796;51.458;7.000;2023-09-08T04:32:10;7.75;;;4.75;;
37973;SDS011;23796;51.458;7.000;2023-09-08T04:34:40;8.88;;;4.57;;
37973;SDS011;23796;51.458;7.000;2023-09-08T04:37:06;11.15;;;5.10;;
37973;SDS011;23796;51.458;7.000;2023-09-08T04:39:32;9.38;;;5.15;;
37973;SDS011;23796;51.458;7.000;2023-09-08T04:41:59;11.82;;;5.30;;
37973;SDS011;23796;51.458;7.000;2023-09-08T04:44:24;9.27;;;4.60;;
37973;SDS011;23796;51.458;7.000;2023-09-08T04:46:51;9.13;;;4.78;;
37973;SDS011;23796;51.458;7.000;2023-09-08T04:49:19;8.90;;;4.47;;
37973;SDS011;23796;51.458;7.000;2023-09-08T04:51:45;7.60;;;5.07;;
37973;SDS011;23796;51.458;7.000;2023-09-08T04:54:10;12.82;;;5.32;;
37973;SDS011;23796;51.458;7.000;2023-09-08T04:56:38;9.00;;;5.18;;
37973;SDS011;23796;51.458;7.000;2023-09-08T04:59:04;11.45;;;5.65;;
37973;SDS011;23796;51.458;7.000;2023-09-08T05:01:30;9.32;;;5.40;;
37973;SDS011;23796;51.458;7.000;2023-09-08T05:03:57;9.50;;;5.50;;
37973;SDS011;23796;51.458;7.000;2023-09-08T05:06:26;9.93;;;5.43;;
37973;SDS011;23796;51.458;7.000;2023-09-08T05:08:51;9.77;;;5.68;;
37973;SDS011;23796;51.458;7.000;2023-09-08T05:11:17;9.15;;;5.60;;
37973;SDS011;23796;51.458;7.000;2023-09-08T05:13:44;9.80;;;5.07;;
37973;SDS011;23796;51.458;7.000;2023-09-08T05:16:11;12.30;;;5.93;;
37973;SDS011;23796;51.458;7.000;2023-09-08T05:18:37;8.80;;;5.90;;
37973;SDS011;23796;51.458;7.000;2023-09-08T05:21:04;8.32;;;4.55;;
37973;SDS011;23796;51.458;7.000;2023-09-08T05:23:29;7.15;;;4.70;;
37973;SDS011;23796;51.458;7.000;2023-09-08T05:25:55;10.05;;;5.05;;
37973;SDS011;23796;51.458;7.000;2023-09-08T05:28:21;8.65;;;4.72;;
37973;SDS011;23796;51.458;7.000;2023-09-08T05:30:46;7.32;;;5.30;;
37973;SDS011;23796;51.458;7.000;2023-09-08T05:33:14;8.65;;;4.90;;
37973;SDS011;23796;51.458;7.000;2023-09-08T05:35:40;9.73;;;4.80;;
37973;SDS011;23796;51.458;7.000;2023-09-08T05:38:06;8.15;;;4.90;;
37973;SDS011;23796;51.458;7.000;2023-09-08T05:40:32;7.68;;;4.63;;
37973;SDS011;23796;51.458;7.000;2023-09-08T05:42:59;6.68;;;4.65;;
37973;SDS011;23796;51.458;7.000;2023-09-08T05:45:24;7.13;;;4.72;;
37973;SDS011;23796;51.458;7.000;2023-09-08T05:47:50;9.73;;;4.75;;
37973;SDS011;23796;51.458;7.000;2023-09-08T05:50:16;7.80;;;4.47;;
37973;SDS011;23796;51.458;7.000;2023-09-08T05:52:42;6.85;;;4.05;;
37973;SDS011;23796;51.458;7.000;2023-09-08T05:55:08;6.97;;;4.80;;
37973;SDS011;23796;51.458;7.000;2023-09-08T05:57:34;7.18;;;4.45;;
37973;SDS011;23796;51.458;7.000;2023-09-08T06:00:00;6.20;;;4.47;;
37973;SDS011;23796;51.458;7.000;2023-09-08T06:02:27;8.15;;;4.20;;
37973;SDS011;23796;51.458;7.000;2023-09-08T06:04:53;8.13;;;4.53;;
37973;SDS011;23796;51.458;7.000;2023-09-08T06:07:18;10.18;;;4.82;;
37973;SDS011;23796;51.458;7.000;2023-09-08T06:09:44;14.00;;;4.95;;
37973;SDS011;23796;51.458;7.000;2023-09-08T06:12:10;10.10;;;5.03;;
37973;SDS011;23796;51.458;7.000;2023-09-08T06:14:35;9.52;;;4.50;;
37973;SDS011;23796;51.458;7.000;2023-09-08T06:17:03;10.70;;;5.45;;
37973;SDS011;23796;51.458;7.000;2023-09-08T06:19:28;8.85;;;4.53;;
37973;SDS011;23796;51.458;7.000;2023-09-08T06:21:54;5.97;;;4.20;;
37973;SDS011;23796;51.458;7.000;2023-09-08T06:24:20;9.25;;;4.38;;
37973;SDS011;23796;51.458;7.000;2023-09-08T06:26:45;8.95;;;4.65;;
37973;SDS011;23796;51.458;7.000;2023-09-08T06:29:14;12.85;;;5.50;;
37973;SDS011;23796;51.458;7.000;2023-09-08T06:31:40;12.18;;;5.65;;
37973;SDS011;23796;51.458;7.000;2023-09-08T06:34:08;8.55;;;4.97;;
37973;SDS011;23796;51.458;7.000;2023-09-08T06:36:33;9.02;;;4.82;;
37973;SDS011;23796;51.458;7.000;2023-09-08T06:39:01;10.57;;;4.90;;
37973;SDS011;23796;51.458;7.000;2023-09-08T06:41:28;11.43;;;4.97;;
37973;SDS011;23796;51.458;7.000;2023-09-08T06:43:54;8.90;;;5.90;;
37973;SDS011;23796;51.458;7.000;2023-09-08T06:46:20;9.85;;;5.63;;
37973;SDS011;23796;51.458;7.000;2023-09-08T06:48:45;8.25;;;5.00;;
37973;SDS011;23796;51.458;7.000;2023-09-08T06:51:11;9.32;;;5.47;;
37973;SDS011;23796;51.458;7.000;2023-09-08T06:53:37;9.70;;;5.03;;
37973;SDS011;23796;51.458;7.000;2023-09-08T06:56:03;10.65;;;6.70;;
37973;SDS011;23796;51.458;7.000;2023-09-08T06:58:31;9.90;;;5.90;;
37973;SDS011;23796;51.458;7.000;2023-09-08T07:00:56;7.40;;;4.88;;
37973;SDS011;23796;51.458;7.000;2023-09-08T07:03:22;14.23;;;5.15;;
37973;SDS011;23796;51.458;7.000;2023-09-08T07:05:51;8.98;;;5.18;;
37973;SDS011;23796;51.458;7.000;2023-09-08T07:08:16;12.77;;;5.80;;
37973;SDS011;23796;51.458;7.000;2023-09-08T07:10:43;9.07;;;4.97;;
37973;SDS011;23796;51.458;7.000;2023-09-08T07:13:09;7.15;;;4.47;;
37973;SDS011;23796;51.458;7.000;2023-09-08T07:15:35;6.85;;;4.75;;
37973;SDS011;23796;51.458;7.000;2023-09-08T07:18:01;10.77;;;4.55;;
37973;SDS011;23796;51.458;7.000;2023-09-08T07:20:26;7.30;;;4.50;;
37973;SDS011;23796;51.458;7.000;2023-09-08T07:22:52;6.18;;;3.88;;
37973;SDS011;23796;51.458;7.000;2023-09-08T07:25:20;6.68;;;4.10;;
37973;SDS011;23796;51.458;7.000;2023-09-08T07:27:45;10.23;;;5.05;;
37973;SDS011;23796;51.458;7.000;2023-09-08T07:30:17;5.60;;;4.25;;
37973;SDS011;23796;51.458;7.000;2023-09-08T07:32:49;11.02;;;5.05;;
37973;SDS011;23796;51.458;7.000;2023-09-08T07:35:17;8.93;;;5.13;;
37973;SDS011;23796;51.458;7.000;2023-09-08T07:37:44;10.18;;;4.72;;
37973;SDS011;23796;51.458;7.000;2023-09-08T07:40:09;8.27;;;4.85;;
37973;SDS011;23796;51.458;7.000;2023-09-08T07:42:36;11.55;;;4.75;;
37973;SDS011;23796;51.458;7.000;2023-09-08T07:45:01;9.43;;;4.57;;
37973;SDS011;23796;51.458;7.000;2023-09-08T07:47:27;7.63;;;4.68;;
37973;SDS011;23796;51.458;7.000;2023-09-08T07:49:53;12.40;;;4.70;;
37973;SDS011;23796;51.458;7.000;2023-09-08T07:52:46;8.15;;;4.80;;
37973;SDS011;23796;51.458;7.000;2023-09-08T07:55:13;9.48;;;5.30;;
37973;SDS011;23796;51.458;7.000;2023-09-08T07:57:39;8.48;;;5.00;;
37973;SDS011;23796;51.458;7.000;2023-09-08T08:00:06;6.45;;;4.65;;
37973;SDS011;23796;51.458;7.000;2023-09-08T08:02:33;8.52;;;4.30;;
37973;SDS011;23796;51.458;7.000;2023-09-08T08:04:59;7.15;;;4.10;;
37973;SDS011;23796;51.458;7.000;2023-09-08T08:07:24;8.52;;;4.55;;
37973;SDS011;23796;51.458;7.000;2023-09-08T08:09:52;11.93;;;4.68;;
37973;SDS011;23796;51.458;7.000;2023-09-08T08:12:19;14.25;;;4.90;;
37973;SDS011;23796;51.458;7.000;2023-09-08T08:14:44;13.68;;;4.90;;
37973;SDS011;23796;51.458;7.000;2023-09-08T08:17:10;8.38;;;5.22;;
37973;SDS011;23796;51.458;7.000;2023-09-08T08:19:36;10.35;;;4.30;;
37973;SDS011;23796;51.458;7.000;2023-09-08T08:22:01;9.20;;;4.32;;
37973;SDS011;23796;51.458;7.000;2023-09-08T08:24:27;11.55;;;6.75;;
37973;SDS011;23796;51.458;7.000;2023-09-08T08:26:55;8.43;;;4.72;;
37973;SDS011;23796;51.458;7.000;2023-09-08T08:29:21;7.88;;;3.75;;
37973;SDS011;23796;51.458;7.000;2023-09-08T08:31:46;10.25;;;4.63;;
37973;SDS011;23796;51.458;7.000;2023-09-08T08:34:12;12.50;;;4.75;;
37973;SDS011;23796;51.458;7.000;2023-09-08T08:36:40;9.57;;;4.43;;
37973;SDS011;23796;51.458;7.000;2023-09-08T08:39:05;7.00;;;4.22;;
37973;SDS011;23796;51.458;7.000;2023-09-08T08:41:31;8.07;;;4.35;;
37973;SDS011;23796;51.458;7.000;2023-09-08T08:43:59;6.43;;;4.35;;
37973;SDS011;23796;51.458;7.000;2023-09-08T08:46:25;10.45;;;4.05;;
37973;SDS011;23796;51.458;7.000;2023-09-08T08:48:53;10.20;;;3.95;;
37973;SDS011;23796;51.458;7.000;2023-09-08T08:51:19;8.70;;;4.18;;
37973;SDS011;23796;51.458;7.000;2023-09-08T08:53:48;6.70;;;4.03;;
37973;SDS011;23796;51.458;7.000;2023-09-08T08:56:14;6.20;;;3.78;;
37973;SDS011;23796;51.458;7.000;2023-09-08T08:58:43;4.50;;;2.70;;
37973;SDS011;23796;51.458;7.000;2023-09-08T09:01:10;6.15;;;3.17;;
37973;SDS011;23796;51.458;7.000;2023-09-08T09:03:37;5.50;;;2.80;;
37973;SDS011;23796;51.458;7.000;2023-09-08T09:06:05;7.07;;;3.00;;
37973;SDS011;23796;51.458;7.000;2023-09-08T09:08:32;4.82;;;2.80;;
37973;SDS011;23796;51.458;7.000;2023-09-08T09:10:59;6.80;;;2.92;;
37973;SDS011;23796;51.458;7.000;2023-09-08T09:13:25;7.30;;;2.90;;
37973;SDS011;23796;51.458;7.000;2023-09-08T09:15:50;5.05;;;2.75;;
37973;SDS011;23796;51.458;7.000;2023-09-08T09:18:16;4.97;;;2.58;;
37973;SDS011;23796;51.458;7.000;2023-09-08T09:20:54;6.50;;;2.65;;
37973;SDS011;23796;51.458;7.000;2023-09-08T09:23:41;7.28;;;2.83;;
37973;SDS011;23796;51.458;7.000;2023-09-08T09:26:06;4.28;;;2.65;;
37973;SDS011;23796;51.458;7.000;2023-09-08T09:28:34;6.50;;;3.35;;
37973;SDS011;23796;51.458;7.000;2023-09-08T09:31:12;4.85;;;2.90;;
37973;SDS011;23796;51.458;7.000;2023-09-08T09:33:40;5.38;;;2.50;;
37973;SDS011;23796;51.458;7.000;2023-09-08T09:36:05;5.50;;;2.50;;
37973;SDS011;23796;51.458;7.000;2023-09-08T09:38:32;4.68;;;2.60;;
37973;SDS011;23796;51.458;7.000;2023-09-08T09:41:00;6.93;;;2.55;;
37973;SDS011;23796;51.458;7.000;2023-09-08T09:43:28;4.50;;;2.72;;
37973;SDS011;23796;51.458;7.000;2023-09-08T09:45:54;5.68;;;2.60;;
37973;SDS011;23796;51.458;7.000;2023-09-08T09:48:21;7.43;;;3.03;;
37973;SDS011;23796;51.458;7.000;2023-09-08T09:50:48;3.35;;;2.38;;
37973;SDS011;23796;51.458;7.000;2023-09-08T09:53:15;4.78;;;2.50;;
37973;SDS011;23796;51.458;7.000;2023-09-08T09:55:44;4.38;;;2.78;;
37973;SDS011;23796;51.458;7.000;2023-09-08T09:58:10;4.65;;;2.58;;
37973;SDS011;23796;51.458;7.000;2023-09-08T10:00:36;4.10;;;2.78;;
37973;SDS011;23796;51.458;7.000;2023-09-08T10:03:03;5.25;;;2.83;;
37973;SDS011;23796;51.458;7.000;2023-09-08T10:05:29;5.40;;;2.58;;
37973;SDS011;23796;51.458;7.000;2023-09-08T10:07:55;6.38;;;2.65;;
37973;SDS011;23796;51.458;7.000;2023-09-08T10:10:21;3.80;;;2.67;;
37973;SDS011;23796;51.458;7.000;2023-09-08T10:12:54;4.55;;;2.83;;
37973;SDS011;23796;51.458;7.000;2023-09-08T10:15:24;4.72;;;3.00;;
37973;SDS011;23796;51.458;7.000;2023-09-08T10:17:53;4.43;;;2.30;;
37973;SDS011;23796;51.458;7.000;2023-09-08T10:20:22;6.55;;;2.70;;
37973;SDS011;23796;51.458;7.000;2023-09-08T10:22:50;5.65;;;2.58;;
37973;SDS011;23796;51.458;7.000;2023-09-08T10:25:20;5.07;;;2.70;;
37973;SDS011;23796;51.458;7.000;2023-09-08T10:27:49;5.88;;;2.60;;
37973;SDS011;23796;51.458;7.000;2023-09-08T10:30:15;3.95;;;2.70;;
37973;SDS011;23796;51.458;7.000;2023-09-08T10:32:42;3.90;;;2.80;;
37973;SDS011;23796;51.458;7.000;2023-09-08T10:35:08;4.68;;;2.58;;
37973;SDS011;23796;51.458;7.000;2023-09-08T10:37:35;5.00;;;2.47;;
37973;SDS011;23796;51.458;7.000;2023-09-08T10:43:09;3.63;;;2.58;;
37973;SDS011;23796;51.458;7.000;2023-09-08T10:45:36;4.90;;;2.70;;
37973;SDS011;23796;51.458;7.000;2023-09-08T10:48:04;6.03;;;2.55;;
37973;SDS011;23796;51.458;7.000;2023-09-08T10:50:32;4.82;;;2.70;;
37973;SDS011;23796;51.458;7.000;2023-09-08T10:53:06;5.55;;;3.45;;
37973;SDS011;23796;51.458;7.000;2023-09-08T10:55:36;5.65;;;3.67;;
37973;SDS011;23796;51.458;7.000;2023-09-08T10:58:05;9.40;;;7.25;;
37973;SDS011;23796;51.458;7.000;2023-09-08T11:00:42;6.25;;;3.10;;
37973;SDS011;23796;51.458;7.000;2023-09-08T11:03:09;5.53;;;3.25;;
37973;SDS011;23796;51.458;7.000;2023-09-08T11:05:35;3.97;;;2.85;;
37973;SDS011;23796;51.458;7.000;2023-09-08T11:08:03;6.00;;;2.70;;
37973;SDS011;23796;51.458;7.000;2023-09-08T11:10:29;6.03;;;2.95;;
37973;SDS011;23796;51.458;7.000;2023-09-08T11:12:55;7.43;;;2.97;;
37973;SDS011;23796;51.458;7.000;2023-09-08T11:15:24;5.90;;;2.55;;
37973;SDS011;23796;51.458;7.000;2023-09-08T11:17:49;4.15;;;2.67;;
37973;SDS011;23796;51.458;7.000;2023-09-08T11:20:25;4.68;;;2.65;;
37973;SDS011;23796;51.458;7.000;2023-09-08T11:22:51;4.32;;;2.60;;
37973;SDS011;23796;51.458;7.000;2023-09-08T11:25:17;5.38;;;2.92;;
37973;SDS011;23796;51.458;7.000;2023-09-08T11:27:43;5.00;;;2.83;;
37973;SDS011;23796;51.458;7.000;2023-09-08T11:30:10;4.53;;;2.83;;
37973;SDS011;23796;51.458;7.000;2023-09-08T11:32:40;4.57;;;2.75;;
37973;SDS011;23796;51.458;7.000;2023-09-08T11:35:09;3.97;;;2.20;;
37973;SDS011;23796;51.458;7.000;2023-09-08T11:37:39;4.85;;;2.90;;
37973;SDS011;23796;51.458;7.000;2023-09-08T11:40:06;9.43;;;3.17;;
37973;SDS011;23796;51.458;7.000;2023-09-08T11:42:40;3.83;;;2.50;;
37973;SDS011;23796;51.458;7.000;2023-09-08T11:45:12;5.65;;;2.60;;
37973;SDS011;23796;51.458;7.000;2023-09-08T11:47:42;3.95;;;2.55;;
37973;SDS011;23796;51.458;7.000;2023-09-08T11:50:09;5.38;;;2.90;;
37973;SDS011;23796;51.458;7.000;2023-09-08T11:52:45;4.97;;;3.00;;
37973;SDS011;23796;51.458;7.000;2023-09-08T11:55:12;3.75;;;2.70;;
37973;SDS011;23796;51.458;7.000;2023-09-08T11:57:38;6.57;;;2.90;;
37973;SDS011;23796;51.458;7.000;2023-09-08T12:00:05;3.67;;;2.58;;
37973;SDS011;23796;51.458;7.000;2023-09-08T12:02:34;4.18;;;2.80;;
37973;SDS011;23796;51.458;7.000;2023-09-08T12:05:02;4.80;;;2.40;;
37973;SDS011;23796;51.458;7.000;2023-09-08T12:07:28;4.13;;;2.47;;
37973;SDS011;23796;51.458;7.000;2023-09-08T12:09:54;4.60;;;3.35;;
37973;SDS011;23796;51.458;7.000;2023-09-08T12:12:20;5.00;;;2.47;;
37973;SDS011;23796;51.458;7.000;2023-09-08T12:14:46;4.97;;;2.65;;
37973;SDS011;23796;51.458;7.000;2023-09-08T12:17:11;7.38;;;2.92;;
37973;SDS011;23796;51.458;7.000;2023-09-08T12:19:42;3.60;;;2.70;;
37973;SDS011;23796;51.458;7.000;2023-09-08T12:22:13;4.22;;;2.78;;
37973;SDS011;23796;51.458;7.000;2023-09-08T12:25:16;5.47;;;2.80;;
37973;SDS011;23796;51.458;7.000;2023-09-08T12:30:01;6.20;;;2.80;;
37973;SDS011;23796;51.458;7.000;2023-09-08T12:32:29;7.72;;;3.47;;
37973;SDS011;23796;51.458;7.000;2023-09-08T12:35:02;4.65;;;2.63;;
37973;SDS011;23796;51.458;7.000;2023-09-08T12:37:34;5.18;;;3.05;;
37973;SDS011;23796;51.458;7.000;2023-09-08T12:40:05;4.60;;;2.70;;
37973;SDS011;23796;51.458;7.000;2023-09-08T12:42:31;5.43;;;3.15;;
37973;SDS011;23796;51.458;7.000;2023-09-08T12:45:09;6.20;;;2.92;;
37973;SDS011;23796;51.458;7.000;2023-09-08T12:47:35;5.25;;;2.47;;
37973;SDS011;23796;51.458;7.000;2023-09-08T12:50:03;4.80;;;2.63;;
37973;SDS011;23796;51.458;7.000;2023-09-08T12:52:35;5.25;;;2.80;;
37973;SDS011;23796;51.458;7.000;2023-09-08T12:55:04;3.58;;;2.40;;
37973;SDS011;23796;51.458;7.000;2023-09-08T12:57:30;6.80;;;3.45;;
37973;SDS011;23796;51.458;7.000;2023-09-08T12:59:58;3.80;;;2.35;;
37973;SDS011;23796;51.458;7.000;2023-09-08T13:02:24;6.18;;;2.80;;
37973;SDS011;23796;51.458;7.000;2023-09-08T13:04:56;9.90;;;2.90;;
37973;SDS011;23796;51.458;7.000;2023-09-08T13:07:23;5.68;;;3.15;;
37973;SDS011;23796;51.458;7.000;2023-09-08T13:09:56;5.85;;;3.13;;
37973;SDS011;23796;51.458;7.000;2023-09-08T13:12:24;5.47;;;2.53;;
37973;SDS011;23796;51.458;7.000;2023-09-08T13:14:50;3.95;;;2.60;;
37973;SDS011;23796;51.458;7.000;2023-09-08T13:17:16;4.47;;;2.85;;
37973;SDS011;23796;51.458;7.000;2023-09-08T13:19:42;6.03;;;3.13;;
37973;SDS011;23796;51.458;7.000;2023-09-08T13:22:10;5.03;;;3.47;;
37973;SDS011;23796;51.458;7.000;2023-09-08T13:24:39;5.00;;;3.25;;
37973;SDS011;23796;51.458;7.000;2023-09-08T13:27:05;6.43;;;2.88;;
37973;SDS011;23796;51.458;7.000;2023-09-08T13:29:34;4.70;;;2.90;;
37973;SDS011;23796;51.458;7.000;2023-09-08T13:32:06;4.10;;;2.75;;
37973;SDS011;23796;51.458;7.000;2023-09-08T13:34:31;6.35;;;2.85;;
37973;SDS011;23796;51.458;7.000;2023-09-08T13:37:04;4.15;;;2.65;;
37973;SDS011;23796;51.458;7.000;2023-09-08T13:39:30;6.28;;;2.80;;
37973;SDS011;23796;51.458;7.000;2023-09-08T13:41:59;6.25;;;3.03;;
37973;SDS011;23796;51.458;7.000;2023-09-08T13:44:31;4.45;;;2.95;;
37973;SDS011;23796;51.458;7.000;2023-09-08T13:47:00;6.13;;;2.80;;
37973;SDS011;23796;51.458;7.000;2023-09-08T13:49:30;5.35;;;3.08;;
37973;SDS011;23796;51.458;7.000;2023-09-08T13:51:56;4.03;;;2.85;;
37973;SDS011;23796;51.458;7.000;2023-09-08T13:54:28;5.10;;;3.95;;
37973;SDS011;23796;51.458;7.000;2023-09-08T13:57:01;6.78;;;2.90;;
37973;SDS011;23796;51.458;7.000;2023-09-08T13:59:37;4.93;;;3.03;;
37973;SDS011;23796;51.458;7.000;2023-09-08T14:02:03;4.82;;;2.58;;
37973;SDS011;23796;51.458;7.000;2023-09-08T14:04:29;4.15;;;3.03;;
37973;SDS011;23796;51.458;7.000;2023-09-08T14:09:26;4.10;;;2.65;;
37973;SDS011;23796;51.458;7.000;2023-09-08T14:11:54;5.45;;;3.30;;
37973;SDS011;23796;51.458;7.000;2023-09-08T14:14:23;4.72;;;2.90;;
37973;SDS011;23796;51.458;7.000;2023-09-08T14:16:51;6.70;;;3.00;;
37973;SDS011;23796;51.458;7.000;2023-09-08T14:19:17;4.13;;;2.92;;
37973;SDS011;23796;51.458;7.000;2023-09-08T14:21:42;4.05;;;2.60;;
37973;SDS011;23796;51.458;7.000;2023-09-08T14:24:08;4.38;;;2.78;;
37973;SDS011;23796;51.458;7.000;2023-09-08T14:26:34;5.53;;;3.30;;
37973;SDS011;23796;51.458;7.000;2023-09-08T14:29:00;5.15;;;2.78;;
37973;SDS011;23796;51.458;7.000;2023-09-08T14:31:28;5.20;;;3.00;;
37973;SDS011;23796;51.458;7.000;2023-09-08T14:33:54;5.80;;;2.90;;
37973;SDS011;23796;51.458;7.000;2023-09-08T14:36:20;5.60;;;2.72;;
37973;SDS011;23796;51.458;7.000;2023-09-08T14:38:46;3.92;;;2.90;;
37973;SDS011;23796;51.458;7.000;2023-09-08T14:41:12;3.95;;;2.47;;
37973;SDS011;23796;51.458;7.000;2023-09-08T14:43:37;7.43;;;2.90;;
37973;SDS011;23796;51.458;7.000;2023-09-08T14:46:03;5.28;;;2.78;;
37973;SDS011;23796;51.458;7.000;2023-09-08T14:48:29;5.90;;;2.83;;
37973;SDS011;23796;51.458;7.000;2023-09-08T14:50:56;3.97;;;2.50;;
37973;SDS011;23796;51.458;7.000;2023-09-08T14:53:22;3.67;;;2.78;;
37973;SDS011;23796;51.458;7.000;2023-09-08T14:55:48;4.13;;;2.50;;
37973;SDS011;23796;51.458;7.000;2023-09-08T14:58:14;6.15;;;4.65;;
37973;SDS011;23796;51.458;7.000;2023-09-08T15:00:40;3.72;;;2.60;;
37973;SDS011;23796;51.458;7.000;2023-09-08T15:03:06;4.85;;;2.70;;